Villas de Cupey, Puerto Rico
Current Conditions -  °F | °C
As of 12:56 PM on Sunday 23 Nov 2014 (Local Time) from TJSJ Reporting Station
Scattered Clouds Scattered Clouds  
Wind Chill: 31°   Ceiling: Unl
Heat Index: 35°   Visibility: 10mi
Dew Point: 23°   Wind: 16mph
Humidity: 65%   Direction: 80°E
Pressure: 30"   Gusts: NA
Location:  18.3754°N, 66.0577°W
Report Text: TJSJ 231656Z 08014KT 10SM FEW033 SCT055 SCT080 31/23 A3000 RMK AO2 SLP157 T03060233 $
Loading
Personal Weather Stations






























Interactive Weather Map New forecast layout! Learn more

10-Day Weather Forecast

Advertisements
Track Severe Weather on mobile